sensor_id;sensor_type;location;lat;lon;timestamp;temperature;humidity
11079;DHT22;5592;49.234;7.268;2023-02-28T00:01:26;-1.00;99.90
11079;DHT22;5592;49.234;7.268;2023-02-28T00:03:52;-1.10;99.90
11079;DHT22;5592;49.234;7.268;2023-02-28T00:06:17;-1.10;99.90
11079;DHT22;5592;49.234;7.268;2023-02-28T00:08:43;-1.20;99.90
11079;DHT22;5592;49.234;7.268;2023-02-28T00:11:12;-1.30;99.90
11079;DHT22;5592;49.234;7.268;2023-02-28T00:13:41;-1.30;99.90
11079;DHT22;5592;49.234;7.268;2023-02-28T00:16:10;-1.30;99.90
11079;DHT22;5592;49.234;7.268;2023-02-28T00:18:37;-1.40;99.90
11079;DHT22;5592;49.234;7.268;2023-02-28T00:21:03;-1.40;99.90
11079;DHT22;5592;49.234;7.268;2023-02-28T00:23:29;-1.50;99.90
11079;DHT22;5592;49.234;7.268;2023-02-28T00:25:55;-1.60;99.90
11079;DHT22;5592;49.234;7.268;2023-02-28T00:28:21;-1.60;99.90
11079;DHT22;5592;49.234;7.268;2023-02-28T00:30:47;-1.60;99.90
11079;DHT22;5592;49.234;7.268;2023-02-28T00:33:13;-1.70;99.90
11079;DHT22;5592;49.234;7.268;2023-02-28T00:35:39;-1.70;99.90
11079;DHT22;5592;49.234;7.268;2023-02-28T00:38:04;-1.70;99.90
11079;DHT22;5592;49.234;7.268;2023-02-28T00:40:31;-1.70;99.90
11079;DHT22;5592;49.234;7.268;2023-02-28T00:42:57;-1.80;99.90
11079;DHT22;5592;49.234;7.268;2023-02-28T00:45:22;-1.80;99.90
11079;DHT22;5592;49.234;7.268;2023-02-28T00:47:48;-1.80;99.90
11079;DHT22;5592;49.234;7.268;2023-02-28T00:50:17;-1.80;99.90
11079;DHT22;5592;49.234;7.268;2023-02-28T00:52:43;-1.80;99.90
11079;DHT22;5592;49.234;7.268;2023-02-28T00:55:09;-1.90;99.90
11079;DHT22;5592;49.234;7.268;2023-02-28T00:57:35;-1.90;99.90
11079;DHT22;5592;49.234;7.268;2023-02-28T01:00:00;-1.90;99.90
11079;DHT22;5592;49.234;7.268;2023-02-28T01:02:26;-1.90;99.90
11079;DHT22;5592;49.234;7.268;2023-02-28T01:04:52;-1.90;99.90
11079;DHT22;5592;49.234;7.268;2023-02-28T01:07:18;-1.90;99.90
11079;DHT22;5592;49.234;7.268;2023-02-28T01:09:43;-1.90;99.90
11079;DHT22;5592;49.234;7.268;2023-02-28T01:12:09;-1.80;99.90
11079;DHT22;5592;49.234;7.268;2023-02-28T01:14:35;-1.80;99.90
11079;DHT22;5592;49.234;7.268;2023-02-28T01:17:01;-1.90;99.90
11079;DHT22;5592;49.234;7.268;2023-02-28T01:19:27;-1.90;99.90
11079;DHT22;5592;49.234;7.268;2023-02-28T01:21:52;-1.90;99.90
11079;DHT22;5592;49.234;7.268;2023-02-28T01:24:18;-2.00;99.90
11079;DHT22;5592;49.234;7.268;2023-02-28T01:26:44;-2.00;99.90
11079;DHT22;5592;49.234;7.268;2023-02-28T01:29:09;-2.00;99.90
11079;DHT22;5592;49.234;7.268;2023-02-28T01:31:35;-2.00;99.90
11079;DHT22;5592;49.234;7.268;2023-02-28T01:34:01;-2.00;99.90
11079;DHT22;5592;49.234;7.268;2023-02-28T01:36:27;-2.00;99.90
11079;DHT22;5592;49.234;7.268;2023-02-28T01:38:52;-2.00;99.90
11079;DHT22;5592;49.234;7.268;2023-02-28T01:41:27;-2.00;99.90
11079;DHT22;5592;49.234;7.268;2023-02-28T01:46:21;-2.10;99.90
11079;DHT22;5592;49.234;7.268;2023-02-28T01:49:09;-2.10;99.90
11079;DHT22;5592;49.234;7.268;2023-02-28T01:51:45;-2.20;99.90
11079;DHT22;5592;49.234;7.268;2023-02-28T01:54:23;-2.20;99.90
11079;DHT22;5592;49.234;7.268;2023-02-28T01:56:57;-2.20;99.90
11079;DHT22;5592;49.234;7.268;2023-02-28T01:59:29;-2.20;99.90
11079;DHT22;5592;49.234;7.268;2023-02-28T02:02:00;-2.20;99.90
11079;DHT22;5592;49.234;7.268;2023-02-28T02:04:32;-2.20;99.90
11079;DHT22;5592;49.234;7.268;2023-02-28T02:06:59;-2.20;99.90
11079;DHT22;5592;49.234;7.268;2023-02-28T02:09:25;-2.20;99.90
11079;DHT22;5592;49.234;7.268;2023-02-28T02:11:51;-2.30;99.90
11079;DHT22;5592;49.234;7.268;2023-02-28T02:14:51;-2.30;99.90
11079;DHT22;5592;49.234;7.268;2023-02-28T02:17:30;-2.40;99.90
11079;DHT22;5592;49.234;7.268;2023-02-28T02:23:30;-2.40;99.90
11079;DHT22;5592;49.234;7.268;2023-02-28T02:37:33;-2.30;99.90
11079;DHT22;5592;49.234;7.268;2023-02-28T02:40:02;-2.30;99.90
11079;DHT22;5592;49.234;7.268;2023-02-28T02:42:45;-2.30;99.90
11079;DHT22;5592;49.234;7.268;2023-02-28T02:45:19;-2.30;99.90
11079;DHT22;5592;49.234;7.268;2023-02-28T02:47:49;-2.30;99.90
11079;DHT22;5592;49.234;7.268;2023-02-28T02:50:22;-2.20;99.90
11079;DHT22;5592;49.234;7.268;2023-02-28T02:52:53;-2.20;99.90
11079;DHT22;5592;49.234;7.268;2023-02-28T02:55:22;-2.10;99.90
11079;DHT22;5592;49.234;7.268;2023-02-28T02:57:54;-2.10;99.90
11079;DHT22;5592;49.234;7.268;2023-02-28T03:00:27;-2.00;99.90
11079;DHT22;5592;49.234;7.268;2023-02-28T03:02:54;-2.00;99.90
11079;DHT22;5592;49.234;7.268;2023-02-28T03:05:32;-2.00;99.90
11079;DHT22;5592;49.234;7.268;2023-02-28T03:07:59;-2.00;99.90
11079;DHT22;5592;49.234;7.268;2023-02-28T03:10:28;-2.10;99.90
11079;DHT22;5592;49.234;7.268;2023-02-28T03:18:54;-2.20;99.90
11079;DHT22;5592;49.234;7.268;2023-02-28T03:21:29;-2.30;99.90
11079;DHT22;5592;49.234;7.268;2023-02-28T03:26:26;-2.40;99.90
11079;DHT22;5592;49.234;7.268;2023-02-28T03:29:10;-2.40;99.90
11079;DHT22;5592;49.234;7.268;2023-02-28T03:31:44;-2.50;99.90
11079;DHT22;5592;49.234;7.268;2023-02-28T03:34:30;-2.50;99.90
11079;DHT22;5592;49.234;7.268;2023-02-28T03:37:04;-2.50;99.90
11079;DHT22;5592;49.234;7.268;2023-02-28T03:39:55;-2.50;99.90
11079;DHT22;5592;49.234;7.268;2023-02-28T03:42:25;-2.60;99.90
11079;DHT22;5592;49.234;7.268;2023-02-28T03:45:02;-2.50;99.90
11079;DHT22;5592;49.234;7.268;2023-02-28T03:50:16;-2.60;99.90
11079;DHT22;5592;49.234;7.268;2023-02-28T03:55:25;-2.60;99.90
11079;DHT22;5592;49.234;7.268;2023-02-28T03:58:16;-2.60;99.90
11079;DHT22;5592;49.234;7.268;2023-02-28T04:00:47;-2.60;99.90
11079;DHT22;5592;49.234;7.268;2023-02-28T04:03:15;-2.60;99.90
11079;DHT22;5592;49.234;7.268;2023-02-28T04:05:53;-2.60;99.90
11079;DHT22;5592;49.234;7.268;2023-02-28T04:08:20;-2.70;99.90
11079;DHT22;5592;49.234;7.268;2023-02-28T04:10:50;-2.70;99.90
11079;DHT22;5592;49.234;7.268;2023-02-28T04:13:18;-2.60;99.90
11079;DHT22;5592;49.234;7.268;2023-02-28T04:15:44;-2.70;99.90
11079;DHT22;5592;49.234;7.268;2023-02-28T04:18:09;-2.70;99.90
11079;DHT22;5592;49.234;7.268;2023-02-28T04:20:35;-2.70;99.90
11079;DHT22;5592;49.234;7.268;2023-02-28T04:23:00;-2.80;99.90
11079;DHT22;5592;49.234;7.268;2023-02-28T04:25:26;-2.80;99.90
11079;DHT22;5592;49.234;7.268;2023-02-28T04:27:52;-2.80;99.90
11079;DHT22;5592;49.234;7.268;2023-02-28T04:30:17;-2.70;99.90
11079;DHT22;5592;49.234;7.268;2023-02-28T04:32:43;-2.70;99.90
11079;DHT22;5592;49.234;7.268;2023-02-28T04:35:08;-2.60;99.90
11079;DHT22;5592;49.234;7.268;2023-02-28T04:37:37;-2.60;99.90
11079;DHT22;5592;49.234;7.268;2023-02-28T04:40:03;-2.60;99.90
11079;DHT22;5592;49.234;7.268;2023-02-28T04:42:29;-2.60;99.90
11079;DHT22;5592;49.234;7.268;2023-02-28T04:45:04;-2.60;99.90
11079;DHT22;5592;49.234;7.268;2023-02-28T04:47:30;-2.70;99.90
11079;DHT22;5592;49.234;7.268;2023-02-28T04:49:56;-2.70;99.90
11079;DHT22;5592;49.234;7.268;2023-02-28T04:52:21;-2.70;99.90
11079;DHT22;5592;49.234;7.268;2023-02-28T04:54:47;-2.70;99.90
11079;DHT22;5592;49.234;7.268;2023-02-28T04:57:13;-2.70;99.90
11079;DHT22;5592;49.234;7.268;2023-02-28T04:59:38;-2.70;99.90
11079;DHT22;5592;49.234;7.268;2023-02-28T05:02:04;-2.80;99.90
11079;DHT22;5592;49.234;7.268;2023-02-28T05:04:36;-2.70;99.90
11079;DHT22;5592;49.234;7.268;2023-02-28T05:07:02;-2.70;99.90
11079;DHT22;5592;49.234;7.268;2023-02-28T05:09:28;-2.70;99.90
11079;DHT22;5592;49.234;7.268;2023-02-28T05:11:55;-2.70;99.90
11079;DHT22;5592;49.234;7.268;2023-02-28T05:14:20;-2.70;99.90
11079;DHT22;5592;49.234;7.268;2023-02-28T05:16:46;-2.70;99.90
11079;DHT22;5592;49.234;7.268;2023-02-28T05:19:11;-2.80;99.90
11079;DHT22;5592;49.234;7.268;2023-02-28T05:21:48;-2.70;99.90
11079;DHT22;5592;49.234;7.268;2023-02-28T05:24:14;-2.70;99.90
11079;DHT22;5592;49.234;7.268;2023-02-28T05:26:42;-2.60;99.90
11079;DHT22;5592;49.234;7.268;2023-02-28T05:29:08;-2.70;99.90
11079;DHT22;5592;49.234;7.268;2023-02-28T05:31:35;-2.60;99.90
11079;DHT22;5592;49.234;7.268;2023-02-28T05:34:01;-2.60;99.90
11079;DHT22;5592;49.234;7.268;2023-02-28T05:36:26;-2.70;99.90
11079;DHT22;5592;49.234;7.268;2023-02-28T05:38:52;-2.70;99.90
11079;DHT22;5592;49.234;7.268;2023-02-28T05:41:19;-2.70;99.90
11079;DHT22;5592;49.234;7.268;2023-02-28T05:43:48;-2.70;99.90
11079;DHT22;5592;49.234;7.268;2023-02-28T05:46:14;-2.70;99.90
11079;DHT22;5592;49.234;7.268;2023-02-28T05:48:41;-2.70;99.90
11079;DHT22;5592;49.234;7.268;2023-02-28T05:51:07;-2.70;99.90
11079;DHT22;5592;49.234;7.268;2023-02-28T05:53:34;-2.70;99.90
11079;DHT22;5592;49.234;7.268;2023-02-28T05:56:00;-2.70;99.90
11079;DHT22;5592;49.234;7.268;2023-02-28T05:58:26;-2.70;99.90
11079;DHT22;5592;49.234;7.268;2023-02-28T06:00:56;-2.70;99.90
11079;DHT22;5592;49.234;7.268;2023-02-28T06:03:22;-2.80;99.90
11079;DHT22;5592;49.234;7.268;2023-02-28T06:05:47;-2.80;99.90
11079;DHT22;5592;49.234;7.268;2023-02-28T06:08:13;-2.80;99.90
11079;DHT22;5592;49.234;7.268;2023-02-28T06:10:39;-2.80;99.90
11079;DHT22;5592;49.234;7.268;2023-02-28T06:13:06;-2.70;99.90
11079;DHT22;5592;49.234;7.268;2023-02-28T06:15:32;-2.70;99.90
11079;DHT22;5592;49.234;7.268;2023-02-28T06:17:58;-2.60;99.90
11079;DHT22;5592;49.234;7.268;2023-02-28T06:20:25;-2.50;99.90
11079;DHT22;5592;49.234;7.268;2023-02-28T06:22:55;-2.50;99.90
11079;DHT22;5592;49.234;7.268;2023-02-28T06:25:21;-2.40;99.90
11079;DHT22;5592;49.234;7.268;2023-02-28T06:27:47;-2.30;99.90
11079;DHT22;5592;49.234;7.268;2023-02-28T06:30:14;-2.20;99.90
11079;DHT22;5592;49.234;7.268;2023-02-28T06:32:39;-2.10;99.90
11079;DHT22;5592;49.234;7.268;2023-02-28T06:35:05;-2.10;99.90
11079;DHT22;5592;49.234;7.268;2023-02-28T06:37:32;-2.00;99.90
11079;DHT22;5592;49.234;7.268;2023-02-28T06:39:57;-1.90;99.90
11079;DHT22;5592;49.234;7.268;2023-02-28T06:42:24;-1.80;99.90
11079;DHT22;5592;49.234;7.268;2023-02-28T06:44:57;-1.80;99.90
11079;DHT22;5592;49.234;7.268;2023-02-28T06:47:22;-1.70;99.90
11079;DHT22;5592;49.234;7.268;2023-02-28T06:49:48;-1.60;99.90
11079;DHT22;5592;49.234;7.268;2023-02-28T06:52:23;-1.40;99.90
11079;DHT22;5592;49.234;7.268;2023-02-28T06:54:48;-1.00;99.90
11079;DHT22;5592;49.234;7.268;2023-02-28T06:57:30;-0.50;99.90
11079;DHT22;5592;49.234;7.268;2023-02-28T07:00:05;0.00;99.90
11079;DHT22;5592;49.234;7.268;2023-02-28T07:02:33;0.80;99.90
11079;DHT22;5592;49.234;7.268;2023-02-28T07:04:58;1.40;99.90
11079;DHT22;5592;49.234;7.268;2023-02-28T07:07:24;1.90;99.90
11079;DHT22;5592;49.234;7.268;2023-02-28T07:09:50;2.30;99.90
11079;DHT22;5592;49.234;7.268;2023-02-28T07:12:15;2.30;99.90
11079;DHT22;5592;49.234;7.268;2023-02-28T07:14:41;2.50;99.90
11079;DHT22;5592;49.234;7.268;2023-02-28T07:17:08;2.70;99.90
11079;DHT22;5592;49.234;7.268;2023-02-28T07:19:36;2.90;99.90
11079;DHT22;5592;49.234;7.268;2023-02-28T07:22:01;3.00;99.90
11079;DHT22;5592;49.234;7.268;2023-02-28T07:24:28;2.80;99.90
11079;DHT22;5592;49.234;7.268;2023-02-28T07:26:54;2.80;99.90
11079;DHT22;5592;49.234;7.268;2023-02-28T07:29:20;2.90;99.90
11079;DHT22;5592;49.234;7.268;2023-02-28T07:31:46;3.00;99.90
11079;DHT22;5592;49.234;7.268;2023-02-28T07:34:12;3.10;99.90
11079;DHT22;5592;49.234;7.268;2023-02-28T07:36:38;3.20;99.90
11079;DHT22;5592;49.234;7.268;2023-02-28T07:39:04;3.00;99.90
11079;DHT22;5592;49.234;7.268;2023-02-28T07:41:34;3.10;99.90
11079;DHT22;5592;49.234;7.268;2023-02-28T07:44:06;3.40;99.90
11079;DHT22;5592;49.234;7.268;2023-02-28T07:46:31;3.50;99.90
11079;DHT22;5592;49.234;7.268;2023-02-28T07:49:00;3.00;99.90
11079;DHT22;5592;49.234;7.268;2023-02-28T07:51:28;2.30;99.90
11079;DHT22;5592;49.234;7.268;2023-02-28T07:53:55;1.90;99.90
11079;DHT22;5592;49.234;7.268;2023-02-28T07:56:20;1.40;99.90
11079;DHT22;5592;49.234;7.268;2023-02-28T07:58:46;1.00;99.90
11079;DHT22;5592;49.234;7.268;2023-02-28T08:01:12;0.70;99.90
11079;DHT22;5592;49.234;7.268;2023-02-28T08:03:39;0.60;99.90
11079;DHT22;5592;49.234;7.268;2023-02-28T08:06:07;0.40;99.90
11079;DHT22;5592;49.234;7.268;2023-02-28T08:08:33;0.30;99.90
11079;DHT22;5592;49.234;7.268;2023-02-28T08:11:00;0.20;99.90
11079;DHT22;5592;49.234;7.268;2023-02-28T08:13:27;0.30;99.90
11079;DHT22;5592;49.234;7.268;2023-02-28T08:15:54;0.40;99.90
11079;DHT22;5592;49.234;7.268;2023-02-28T08:18:20;0.50;99.90
11079;DHT22;5592;49.234;7.268;2023-02-28T08:20:46;0.50;99.90
11079;DHT22;5592;49.234;7.268;2023-02-28T08:23:11;0.60;99.90
11079;DHT22;5592;49.234;7.268;2023-02-28T08:25:37;0.70;99.90
11079;DHT22;5592;49.234;7.268;2023-02-28T08:28:03;0.80;99.90
11079;DHT22;5592;49.234;7.268;2023-02-28T08:30:29;0.80;99.90
11079;DHT22;5592;49.234;7.268;2023-02-28T08:32:54;0.90;99.90
11079;DHT22;5592;49.234;7.268;2023-02-28T08:35:21;1.00;99.90
11079;DHT22;5592;49.234;7.268;2023-02-28T08:37:48;1.10;99.90
11079;DHT22;5592;49.234;7.268;2023-02-28T08:40:15;1.30;99.90
11079;DHT22;5592;49.234;7.268;2023-02-28T08:42:50;1.40;99.90
11079;DHT22;5592;49.234;7.268;2023-02-28T08:45:16;1.60;99.90
11079;DHT22;5592;49.234;7.268;2023-02-28T08:47:41;1.90;99.90
11079;DHT22;5592;49.234;7.268;2023-02-28T08:50:08;2.10;99.90
11079;DHT22;5592;49.234;7.268;2023-02-28T08:52:34;2.20;99.90
11079;DHT22;5592;49.234;7.268;2023-02-28T08:54:59;2.20;99.90
11079;DHT22;5592;49.234;7.268;2023-02-28T08:57:25;2.20;99.90
11079;DHT22;5592;49.234;7.268;2023-02-28T08:59:53;2.20;99.90
11079;DHT22;5592;49.234;7.268;2023-02-28T09:02:19;2.30;99.90
11079;DHT22;5592;49.234;7.268;2023-02-28T09:04:45;2.10;99.90
11079;DHT22;5592;49.234;7.268;2023-02-28T09:07:11;2.10;99.90
11079;DHT22;5592;49.234;7.268;2023-02-28T09:09:37;2.10;99.90
11079;DHT22;5592;49.234;7.268;2023-02-28T09:12:20;2.20;99.90
11079;DHT22;5592;49.234;7.268;2023-02-28T09:14:46;2.20;99.90
11079;DHT22;5592;49.234;7.268;2023-02-28T09:17:11;2.40;99.90
11079;DHT22;5592;49.234;7.268;2023-02-28T09:19:37;2.80;99.90
11079;DHT22;5592;49.234;7.268;2023-02-28T09:22:02;2.90;99.90
11079;DHT22;5592;49.234;7.268;2023-02-28T09:24:28;2.90;99.90
11079;DHT22;5592;49.234;7.268;2023-02-28T09:26:53;3.00;99.90
11079;DHT22;5592;49.234;7.268;2023-02-28T09:29:19;3.00;99.90
11079;DHT22;5592;49.234;7.268;2023-02-28T09:34:20;3.00;99.90
11079;DHT22;5592;49.234;7.268;2023-02-28T09:36:45;3.10;99.90
11079;DHT22;5592;49.234;7.268;2023-02-28T09:39:12;3.50;99.90
11079;DHT22;5592;49.234;7.268;2023-02-28T09:41:42;3.90;99.90
11079;DHT22;5592;49.234;7.268;2023-02-28T09:46:57;5.00;99.90
11079;DHT22;5592;49.234;7.268;2023-02-28T09:49:40;5.40;99.90
11079;DHT22;5592;49.234;7.268;2023-02-28T09:52:18;5.70;99.90
11079;DHT22;5592;49.234;7.268;2023-02-28T09:54:45;5.70;99.90
11079;DHT22;5592;49.234;7.268;2023-02-28T09:57:37;5.70;99.90
11079;DHT22;5592;49.234;7.268;2023-02-28T10:00:19;5.80;99.90
11079;DHT22;5592;49.234;7.268;2023-02-28T10:05:27;5.60;99.90
11079;DHT22;5592;49.234;7.268;2023-02-28T10:08:14;5.70;99.90
11079;DHT22;5592;49.234;7.268;2023-02-28T10:10:48;5.50;99.90
11079;DHT22;5592;49.234;7.268;2023-02-28T10:19:10;5.40;99.90
11079;DHT22;5592;49.234;7.268;2023-02-28T10:21:49;5.40;99.90
11079;DHT22;5592;49.234;7.268;2023-02-28T10:24:47;5.20;99.90
11079;DHT22;5592;49.234;7.268;2023-02-28T10:27:26;4.90;99.90
11079;DHT22;5592;49.234;7.268;2023-02-28T10:29:59;5.20;99.90
11079;DHT22;5592;49.234;7.268;2023-02-28T10:32:34;5.40;99.90
11079;DHT22;5592;49.234;7.268;2023-02-28T10:35:25;5.90;99.90
11079;DHT22;5592;49.234;7.268;2023-02-28T10:38:16;6.10;99.90
11079;DHT22;5592;49.234;7.268;2023-02-28T10:40:42;6.00;99.90
11079;DHT22;5592;49.234;7.268;2023-02-28T10:45:56;6.20;99.90
11079;DHT22;5592;49.234;7.268;2023-02-28T11:01:24;5.70;98.80
11079;DHT22;5592;49.234;7.268;2023-02-28T11:03:51;5.30;99.90
11079;DHT22;5592;49.234;7.268;2023-02-28T11:06:29;5.60;98.90
11079;DHT22;5592;49.234;7.268;2023-02-28T11:08:59;5.40;98.20
11079;DHT22;5592;49.234;7.268;2023-02-28T11:11:28;4.70;99.90
11079;DHT22;5592;49.234;7.268;2023-02-28T11:14:02;4.70;99.90
11079;DHT22;5592;49.234;7.268;2023-02-28T11:16:33;5.10;99.90
11079;DHT22;5592;49.234;7.268;2023-02-28T11:18:59;4.80;99.90
11079;DHT22;5592;49.234;7.268;2023-02-28T11:21:31;4.60;99.90
11079;DHT22;5592;49.234;7.268;2023-02-28T11:24:30;4.60;99.90
11079;DHT22;5592;49.234;7.268;2023-02-28T11:26:59;4.20;99.90
11079;DHT22;5592;49.234;7.268;2023-02-28T11:29:31;4.10;99.90
11079;DHT22;5592;49.234;7.268;2023-02-28T11:34:29;4.10;99.90
11079;DHT22;5592;49.234;7.268;2023-02-28T11:36:58;4.10;99.90
11079;DHT22;5592;49.234;7.268;2023-02-28T11:39:31;4.10;99.90
11079;DHT22;5592;49.234;7.268;2023-02-28T11:54:02;4.50;99.90
11079;DHT22;5592;49.234;7.268;2023-02-28T11:56:44;4.70;99.90
11079;DHT22;5592;49.234;7.268;2023-02-28T12:04:53;4.70;99.90
11079;DHT22;5592;49.234;7.268;2023-02-28T12:10:29;4.90;99.90
11079;DHT22;5592;49.234;7.268;2023-02-28T12:23:42;5.00;99.40
11079;DHT22;5592;49.234;7.268;2023-02-28T12:26:14;5.10;99.90
11079;DHT22;5592;49.234;7.268;2023-02-28T12:28:46;5.20;97.80
11079;DHT22;5592;49.234;7.268;2023-02-28T12:31:18;5.30;97.60
11079;DHT22;5592;49.234;7.268;2023-02-28T12:33:51;5.30;98.70
11079;DHT22;5592;49.234;7.268;2023-02-28T12:36:19;5.30;98.30
11079;DHT22;5592;49.234;7.268;2023-02-28T12:39:02;5.30;97.70
11079;DHT22;5592;49.234;7.268;2023-02-28T12:41:45;5.10;98.00
11079;DHT22;5592;49.234;7.268;2023-02-28T12:44:17;4.90;97.50
11079;DHT22;5592;49.234;7.268;2023-02-28T12:46:47;4.60;98.40
11079;DHT22;5592;49.234;7.268;2023-02-28T12:51:52;4.70;99.90
11079;DHT22;5592;49.234;7.268;2023-02-28T12:54:35;4.90;98.00
11079;DHT22;5592;49.234;7.268;2023-02-28T12:57:09;5.20;98.10
11079;DHT22;5592;49.234;7.268;2023-02-28T13:05:07;5.50;96.40
11079;DHT22;5592;49.234;7.268;2023-02-28T13:10:04;4.70;97.70
11079;DHT22;5592;49.234;7.268;2023-02-28T13:12:31;4.60;98.00
11079;DHT22;5592;49.234;7.268;2023-02-28T13:15:21;4.60;99.50
11079;DHT22;5592;49.234;7.268;2023-02-28T13:17:51;4.60;99.10
11079;DHT22;5592;49.234;7.268;2023-02-28T13:20:35;4.50;99.10
11079;DHT22;5592;49.234;7.268;2023-02-28T13:23:01;4.50;99.90
11079;DHT22;5592;49.234;7.268;2023-02-28T13:28:01;4.50;99.90
11079;DHT22;5592;49.234;7.268;2023-02-28T13:38:54;5.20;98.00
11079;DHT22;5592;49.234;7.268;2023-02-28T13:52:15;5.20;96.50
11079;DHT22;5592;49.234;7.268;2023-02-28T13:58:17;5.20;96.10
11079;DHT22;5592;49.234;7.268;2023-02-28T14:06:23;4.70;97.10
11079;DHT22;5592;49.234;7.268;2023-02-28T14:09:03;4.60;98.40
11079;DHT22;5592;49.234;7.268;2023-02-28T14:11:38;4.80;99.20
11079;DHT22;5592;49.234;7.268;2023-02-28T14:14:07;4.80;97.90
11079;DHT22;5592;49.234;7.268;2023-02-28T14:16:45;4.80;97.70
11079;DHT22;5592;49.234;7.268;2023-02-28T14:19:29;4.90;98.60
11079;DHT22;5592;49.234;7.268;2023-02-28T14:37:46;4.90;98.00
11079;DHT22;5592;49.234;7.268;2023-02-28T14:42:59;5.00;98.90
11079;DHT22;5592;49.234;7.268;2023-02-28T14:45:34;5.10;99.70
11079;DHT22;5592;49.234;7.268;2023-02-28T14:48:02;5.10;98.30
11079;DHT22;5592;49.234;7.268;2023-02-28T14:50:32;5.00;97.80
11079;DHT22;5592;49.234;7.268;2023-02-28T14:52:59;5.00;97.70
11079;DHT22;5592;49.234;7.268;2023-02-28T14:55:30;4.90;98.80
11079;DHT22;5592;49.234;7.268;2023-02-28T14:58:02;4.80;99.20
11079;DHT22;5592;49.234;7.268;2023-02-28T15:00:34;4.80;98.60
11079;DHT22;5592;49.234;7.268;2023-02-28T15:03:13;4.70;98.70
11079;DHT22;5592;49.234;7.268;2023-02-28T15:06:00;4.60;99.30
11079;DHT22;5592;49.234;7.268;2023-02-28T15:08:27;4.60;99.10
11079;DHT22;5592;49.234;7.268;2023-02-28T15:11:13;4.60;98.60
11079;DHT22;5592;49.234;7.268;2023-02-28T15:13:41;4.50;99.00
11079;DHT22;5592;49.234;7.268;2023-02-28T15:16:30;4.50;99.40
11079;DHT22;5592;49.234;7.268;2023-02-28T15:19:00;4.50;99.90
11079;DHT22;5592;49.234;7.268;2023-02-28T15:21:30;4.50;99.90
11079;DHT22;5592;49.234;7.268;2023-02-28T15:24:14;4.50;99.90
11079;DHT22;5592;49.234;7.268;2023-02-28T15:26:54;4.50;99.90
11079;DHT22;5592;49.234;7.268;2023-02-28T15:29:23;4.50;99.90
11079;DHT22;5592;49.234;7.268;2023-02-28T15:34:39;4.40;99.90
11079;DHT22;5592;49.234;7.268;2023-02-28T15:37:33;4.40;99.90
11079;DHT22;5592;49.234;7.268;2023-02-28T15:40:23;4.30;99.90
11079;DHT22;5592;49.234;7.268;2023-02-28T15:43:15;4.30;99.90
11079;DHT22;5592;49.234;7.268;2023-02-28T15:48:19;4.20;99.90
11079;DHT22;5592;49.234;7.268;2023-02-28T15:50:52;4.20;99.90
11079;DHT22;5592;49.234;7.268;2023-02-28T15:53:30;4.20;99.90
11079;DHT22;5592;49.234;7.268;2023-02-28T15:56:34;4.20;99.90
11079;DHT22;5592;49.234;7.268;2023-02-28T15:59:06;4.10;99.90
11079;DHT22;5592;49.234;7.268;2023-02-28T16:01:33;4.10;99.90
11079;DHT22;5592;49.234;7.268;2023-02-28T16:04:23;4.10;99.90
11079;DHT22;5592;49.234;7.268;2023-02-28T16:09:23;4.10;99.90
11079;DHT22;5592;49.234;7.268;2023-02-28T16:11:51;4.10;99.90
11079;DHT22;5592;49.234;7.268;2023-02-28T16:14:26;4.10;99.90
11079;DHT22;5592;49.234;7.268;2023-02-28T16:16:57;4.00;99.90
11079;DHT22;5592;49.234;7.268;2023-02-28T16:19:27;4.00;99.90
11079;DHT22;5592;49.234;7.268;2023-02-28T16:21:52;3.90;99.90
11079;DHT22;5592;49.234;7.268;2023-02-28T16:24:18;3.90;99.90
11079;DHT22;5592;49.234;7.268;2023-02-28T16:26:47;3.90;99.90
11079;DHT22;5592;49.234;7.268;2023-02-28T16:29:24;3.80;99.90
11079;DHT22;5592;49.234;7.268;2023-02-28T16:31:52;3.80;99.90
11079;DHT22;5592;49.234;7.268;2023-02-28T16:34:19;3.80;99.90
11079;DHT22;5592;49.234;7.268;2023-02-28T16:36:47;3.70;99.90
11079;DHT22;5592;49.234;7.268;2023-02-28T16:39:16;3.70;99.90
11079;DHT22;5592;49.234;7.268;2023-02-28T16:41:44;3.60;99.90
11079;DHT22;5592;49.234;7.268;2023-02-28T16:44:27;3.60;99.90
11079;DHT22;5592;49.234;7.268;2023-02-28T16:46:53;3.50;99.90
11079;DHT22;5592;49.234;7.268;2023-02-28T16:49:18;3.50;99.90
11079;DHT22;5592;49.234;7.268;2023-02-28T16:51:44;3.40;99.90
11079;DHT22;5592;49.234;7.268;2023-02-28T16:54:09;3.40;99.90
11079;DHT22;5592;49.234;7.268;2023-02-28T16:56:35;3.30;99.90
11079;DHT22;5592;49.234;7.268;2023-02-28T16:59:02;3.20;99.90
11079;DHT22;5592;49.234;7.268;2023-02-28T17:01:28;3.20;99.90
11079;DHT22;5592;49.234;7.268;2023-02-28T17:03:54;3.10;99.90
11079;DHT22;5592;49.234;7.268;2023-02-28T17:06:23;3.00;99.90
11079;DHT22;5592;49.234;7.268;2023-02-28T17:08:52;2.90;99.90
11079;DHT22;5592;49.234;7.268;2023-02-28T17:11:19;2.80;99.90
11079;DHT22;5592;49.234;7.268;2023-02-28T17:13:45;2.70;99.90
11079;DHT22;5592;49.234;7.268;2023-02-28T17:16:25;2.60;99.90
11079;DHT22;5592;49.234;7.268;2023-02-28T17:18:53;2.50;99.90
11079;DHT22;5592;49.234;7.268;2023-02-28T17:21:19;2.40;99.90
11079;DHT22;5592;49.234;7.268;2023-02-28T17:23:45;2.40;99.90
11079;DHT22;5592;49.234;7.268;2023-02-28T17:26:18;2.40;99.90
11079;DHT22;5592;49.234;7.268;2023-02-28T17:28:50;2.40;99.90
11079;DHT22;5592;49.234;7.268;2023-02-28T17:31:17;2.40;99.90
11079;DHT22;5592;49.234;7.268;2023-02-28T17:33:43;2.40;99.90
11079;DHT22;5592;49.234;7.268;2023-02-28T17:36:13;2.30;99.90
11079;DHT22;5592;49.234;7.268;2023-02-28T17:38:40;2.30;99.90
11079;DHT22;5592;49.234;7.268;2023-02-28T17:41:05;2.30;99.90
11079;DHT22;5592;49.234;7.268;2023-02-28T17:43:31;2.10;99.90
11079;DHT22;5592;49.234;7.268;2023-02-28T17:45:57;2.20;99.90
11079;DHT22;5592;49.234;7.268;2023-02-28T17:48:24;2.10;99.90
11079;DHT22;5592;49.234;7.268;2023-02-28T17:50:49;2.00;99.90
11079;DHT22;5592;49.234;7.268;2023-02-28T17:53:15;2.00;99.90
11079;DHT22;5592;49.234;7.268;2023-02-28T17:55:40;1.90;99.90
11079;DHT22;5592;49.234;7.268;2023-02-28T17:58:09;1.90;99.90
11079;DHT22;5592;49.234;7.268;2023-02-28T18:00:36;1.90;99.90
11079;DHT22;5592;49.234;7.268;2023-02-28T18:03:03;1.90;99.90
11079;DHT22;5592;49.234;7.268;2023-02-28T18:05:29;1.90;99.90
11079;DHT22;5592;49.234;7.268;2023-02-28T18:07:55;1.90;99.90
11079;DHT22;5592;49.234;7.268;2023-02-28T18:10:22;1.80;99.90
11079;DHT22;5592;49.234;7.268;2023-02-28T18:12:49;1.80;99.90
11079;DHT22;5592;49.234;7.268;2023-02-28T18:15:16;1.60;99.90
11079;DHT22;5592;49.234;7.268;2023-02-28T18:17:52;1.70;99.90
11079;DHT22;5592;49.234;7.268;2023-02-28T18:20:18;1.70;99.90
11079;DHT22;5592;49.234;7.268;2023-02-28T18:22:46;1.60;99.90
11079;DHT22;5592;49.234;7.268;2023-02-28T18:25:12;1.50;99.90
11079;DHT22;5592;49.234;7.268;2023-02-28T18:27:42;1.40;99.90
11079;DHT22;5592;49.234;7.268;2023-02-28T18:30:30;1.30;99.90
11079;DHT22;5592;49.234;7.268;2023-02-28T18:33:00;1.30;99.90
11079;DHT22;5592;49.234;7.268;2023-02-28T18:35:27;1.30;99.90
11079;DHT22;5592;49.234;7.268;2023-02-28T18:38:15;1.20;99.90
11079;DHT22;5592;49.234;7.268;2023-02-28T18:40:42;1.10;99.90
11079;DHT22;5592;49.234;7.268;2023-02-28T18:43:08;1.10;99.90
11079;DHT22;5592;49.234;7.268;2023-02-28T18:45:35;1.10;99.90
11079;DHT22;5592;49.234;7.268;2023-02-28T18:48:01;1.10;99.90
11079;DHT22;5592;49.234;7.268;2023-02-28T18:50:27;1.20;99.90
11079;DHT22;5592;49.234;7.268;2023-02-28T18:52:53;1.20;99.90
11079;DHT22;5592;49.234;7.268;2023-02-28T18:55:22;1.20;99.90